createdAt,value
2017-06-13T00:00:51.723Z,12
2017-06-13T00:02:04.127Z,4
2017-06-13T00:03:17.024Z,4
2017-06-13T00:04:29.917Z,12
2017-06-13T00:05:42.809Z,12
2017-06-13T00:06:55.707Z,12
2017-06-13T00:08:08.119Z,12
2017-06-13T00:09:21.227Z,12
2017-06-13T00:10:34.123Z,4
2017-06-13T00:11:47.038Z,4
2017-06-13T00:12:59.938Z,4
2017-06-13T00:14:12.341Z,16
2017-06-13T00:15:24.749Z,16
2017-06-13T00:16:37.155Z,12
2017-06-13T00:17:50.047Z,12
2017-06-13T00:19:02.958Z,12
2017-06-13T00:20:14.870Z,12
2017-06-13T00:21:27.764Z,4
2017-06-13T00:22:40.656Z,16
2017-06-13T00:23:53.551Z,12
2017-06-13T00:25:05.665Z,12
2017-06-13T00:26:18.560Z,12
2017-06-13T00:27:30.963Z,12
2017-06-13T00:28:43.859Z,12
2017-06-13T00:29:56.263Z,12
2017-06-13T00:31:09.159Z,12
2017-06-13T00:32:22.049Z,12
2017-06-13T00:33:34.951Z,12
2017-06-13T00:34:47.843Z,12
2017-06-13T00:36:00.737Z,12
2017-06-13T00:37:13.142Z,12
2017-06-13T00:38:26.038Z,12
2017-06-13T00:39:38.931Z,12
2017-06-13T00:40:51.831Z,12
2017-06-13T00:42:04.928Z,12
2017-06-13T00:43:17.822Z,12
2017-06-13T00:44:30.222Z,12
2017-06-13T00:45:43.115Z,12
2017-06-13T00:46:56.205Z,12
2017-06-13T00:48:09.095Z,12
2017-06-13T00:49:21.010Z,12
2017-06-13T00:50:33.919Z,12
2017-06-13T00:51:46.320Z,12
2017-06-13T00:52:59.421Z,12
2017-06-13T00:54:12.314Z,12
2017-06-13T00:55:25.218Z,4
2017-06-13T00:56:38.111Z,12
2017-06-13T00:57:51.005Z,12
2017-06-13T00:59:03.900Z,12
2017-06-13T01:00:16.795Z,12
2017-06-13T01:01:29.203Z,12
2017-06-13T01:02:42.119Z,12
2017-06-13T01:03:55.212Z,12
2017-06-13T01:05:08.103Z,8
2017-06-13T01:06:20.996Z,12
2017-06-13T01:07:33.891Z,12
2017-06-13T01:08:46.786Z,12
2017-06-13T01:09:59.678Z,12
2017-06-13T01:11:12.569Z,12
2017-06-13T01:12:25.465Z,12
2017-06-13T01:13:37.882Z,12
2017-06-13T01:14:50.997Z,12
2017-06-13T01:16:03.908Z,12
2017-06-13T01:17:16.819Z,12
2017-06-13T01:18:29.241Z,12
2017-06-13T01:19:41.661Z,16
2017-06-13T01:20:54.082Z,12
2017-06-13T01:22:06.994Z,4
2017-06-13T01:23:19.904Z,12
2017-06-13T01:24:32.817Z,12
2017-06-13T01:25:45.443Z,12
2017-06-13T01:26:58.354Z,12
2017-06-13T01:28:11.265Z,12
2017-06-13T01:29:24.198Z,12
2017-06-13T01:30:37.119Z,12
2017-06-13T01:31:50.030Z,12
2017-06-13T01:33:02.943Z,12
2017-06-13T01:34:15.368Z,12
2017-06-13T01:35:28.283Z,12
2017-06-13T01:36:41.395Z,12
2017-06-13T01:37:53.827Z,12
2017-06-13T01:39:06.763Z,4
2017-06-13T01:40:19.186Z,12
2017-06-13T01:41:32.095Z,12
2017-06-13T01:42:45.014Z,12
2017-06-13T01:43:57.923Z,12
2017-06-13T01:45:10.835Z,12
2017-06-13T01:46:23.950Z,12
2017-06-13T01:47:36.372Z,12
2017-06-13T01:48:49.281Z,12
2017-06-13T01:50:02.190Z,12
2017-06-13T01:51:15.103Z,12
2017-06-13T01:52:27.725Z,12
2017-06-13T01:53:40.635Z,12
2017-06-13T01:54:53.056Z,8
2017-06-13T01:56:05.968Z,16
2017-06-13T01:57:18.877Z,12
2017-06-13T01:58:31.890Z,12
2017-06-13T01:59:44.662Z,12
2017-06-13T02:00:57.436Z,12
2017-06-13T02:02:10.211Z,12
2017-06-13T02:03:22.981Z,12
2017-06-13T02:04:35.753Z,12
2017-06-13T02:05:48.044Z,12
2017-06-13T02:07:00.814Z,12
2017-06-13T02:08:13.102Z,12
2017-06-13T02:09:26.076Z,12
2017-06-13T02:10:38.367Z,12
2017-06-13T02:11:51.179Z,12
2017-06-13T02:13:04.031Z,12
2017-06-13T02:14:17.085Z,12
2017-06-13T02:15:29.937Z,12
2017-06-13T02:16:42.306Z,12
2017-06-13T02:17:55.165Z,12
2017-06-13T02:19:07.538Z,12
2017-06-13T02:20:20.594Z,12
2017-06-13T02:21:33.447Z,12
2017-06-13T02:22:46.298Z,12
2017-06-13T02:23:59.176Z,12
2017-06-13T02:25:11.548Z,12
2017-06-13T02:26:24.403Z,12
2017-06-13T02:27:37.262Z,12
2017-06-13T02:28:49.630Z,12
2017-06-13T02:30:02.488Z,4
2017-06-13T02:31:15.544Z,12
2017-06-13T02:32:27.910Z,12
2017-06-13T02:33:40.769Z,12
2017-06-13T02:34:53.621Z,12
2017-06-13T02:36:06.189Z,12
2017-06-13T02:37:18.561Z,12
2017-06-13T02:38:31.421Z,4
2017-06-13T02:39:44.277Z,12
2017-06-13T02:40:56.648Z,12
2017-06-13T02:42:09.015Z,12
2017-06-13T02:43:21.967Z,12
2017-06-13T02:44:34.462Z,12
2017-06-13T02:45:47.399Z,12
2017-06-13T02:47:00.509Z,12
2017-06-13T02:48:13.422Z,12
2017-06-13T02:49:26.367Z,12
2017-06-13T02:50:38.295Z,12
2017-06-13T02:51:50.714Z,12
2017-06-13T02:53:03.825Z,12
2017-06-13T02:54:16.736Z,12
2017-06-13T02:55:29.156Z,4
2017-06-13T02:56:41.582Z,12
2017-06-13T02:57:54.497Z,12
2017-06-13T02:59:07.411Z,12
2017-06-13T03:00:20.320Z,12
2017-06-13T03:01:33.235Z,12
2017-06-13T03:02:45.660Z,12
2017-06-13T03:03:58.278Z,12
2017-06-13T03:05:10.697Z,12
2017-06-13T03:06:23.603Z,16
2017-06-13T03:07:36.514Z,12
2017-06-13T03:08:49.427Z,12
2017-06-13T03:10:00.864Z,12
2017-06-13T03:11:13.776Z,12
2017-06-13T03:12:26.200Z,4
2017-06-13T03:13:38.622Z,12
2017-06-13T03:14:51.732Z,12
2017-06-13T03:16:04.643Z,12
2017-06-13T03:17:17.551Z,12
2017-06-13T03:18:30.459Z,12
2017-06-13T03:19:43.568Z,12
2017-06-13T03:20:55.988Z,12
2017-06-13T03:22:08.900Z,12
2017-06-13T03:23:21.812Z,12
2017-06-13T03:24:34.731Z,12
2017-06-13T03:25:47.641Z,4
2017-06-13T03:27:00.550Z,12
2017-06-13T03:28:13.452Z,12
2017-06-13T03:29:25.365Z,12
2017-06-13T03:30:38.262Z,12
2017-06-13T03:31:51.153Z,12
2017-06-13T03:33:03.554Z,12
2017-06-13T03:34:16.443Z,12
2017-06-13T03:35:28.355Z,12
2017-06-13T03:36:41.445Z,12
2017-06-13T03:37:53.846Z,12
2017-06-13T03:39:06.738Z,4
2017-06-13T03:40:19.629Z,16
2017-06-13T03:41:32.229Z,12
2017-06-13T03:42:45.123Z,12
2017-06-13T03:43:58.018Z,12
2017-06-13T03:45:10.911Z,4
2017-06-13T03:46:23.317Z,4
2017-06-13T03:47:35.920Z,12
2017-06-13T03:48:48.816Z,12
2017-06-13T03:50:01.224Z,16
2017-06-13T03:51:13.623Z,12
2017-06-13T03:52:26.257Z,12
2017-06-13T03:53:38.175Z,12
2017-06-13T03:54:51.067Z,12
2017-06-13T03:56:03.959Z,12
2017-06-13T03:57:16.850Z,12
2017-06-13T03:58:28.960Z,12
2017-06-13T03:59:41.365Z,12
2017-06-13T04:00:53.273Z,12
2017-06-13T04:02:06.181Z,12
2017-06-13T04:03:19.076Z,12
2017-06-13T04:04:31.478Z,12
2017-06-13T04:05:44.371Z,12
2017-06-13T04:06:56.773Z,12
2017-06-13T04:08:09.663Z,12
2017-06-13T04:09:22.562Z,12
2017-06-13T04:10:34.469Z,12
2017-06-13T04:11:47.363Z,12
2017-06-13T04:13:00.256Z,12
2017-06-13T04:14:13.259Z,12
2017-06-13T04:15:26.031Z,12
2017-06-13T04:16:38.800Z,12
2017-06-13T04:17:51.572Z,12
2017-06-13T04:19:04.343Z,12
2017-06-13T04:20:17.124Z,12
2017-06-13T04:21:29.914Z,12
2017-06-13T04:22:42.702Z,12
2017-06-13T04:23:54.995Z,12
2017-06-13T04:25:07.970Z,12
2017-06-13T04:26:20.743Z,4
2017-06-13T04:27:33.041Z,12
2017-06-13T04:28:45.331Z,12
2017-06-13T04:29:58.107Z,12
2017-06-13T04:31:11.079Z,12
2017-06-13T04:32:23.370Z,12
2017-06-13T04:33:35.669Z,12
2017-06-13T04:34:48.440Z,12
2017-06-13T04:36:01.408Z,12
2017-06-13T04:37:14.179Z,12
2017-06-13T04:38:26.947Z,12
2017-06-13T04:39:39.241Z,4
2017-06-13T04:40:51.532Z,12
2017-06-13T04:42:04.307Z,12
2017-06-13T04:43:16.602Z,12
2017-06-13T04:44:28.895Z,12
2017-06-13T04:45:41.668Z,12
2017-06-13T04:46:54.646Z,12
2017-06-13T04:48:07.420Z,12
2017-06-13T04:49:20.191Z,12
2017-06-13T04:50:32.963Z,12
2017-06-13T04:51:45.254Z,12
2017-06-13T04:52:58.229Z,12
2017-06-13T04:54:11.002Z,12
2017-06-13T04:55:23.776Z,12
2017-06-13T04:56:36.072Z,12
2017-06-13T04:57:49.055Z,12
2017-06-13T04:59:01.924Z,12
2017-06-13T05:00:13.858Z,12
2017-06-13T05:01:26.770Z,12
2017-06-13T05:02:39.192Z,12
2017-06-13T05:03:52.210Z,12
2017-06-13T05:05:04.984Z,12
2017-06-13T05:06:17.279Z,12
2017-06-13T05:07:29.089Z,12
2017-06-13T05:08:42.101Z,12
2017-06-13T05:09:54.395Z,12
2017-06-13T05:11:07.169Z,12
2017-06-13T05:12:19.942Z,12
2017-06-13T05:13:31.751Z,12
2017-06-13T05:14:44.725Z,12
2017-06-13T05:15:57.499Z,12
2017-06-13T05:17:10.272Z,12
2017-06-13T05:18:22.569Z,12
2017-06-13T05:19:35.352Z,4
2017-06-13T05:20:47.162Z,12
2017-06-13T05:21:59.932Z,16
2017-06-13T05:23:12.703Z,16
2017-06-13T05:24:24.992Z,12
2017-06-13T05:25:37.964Z,12
2017-06-13T05:26:50.743Z,12
2017-06-13T05:28:03.516Z,12
2017-06-13T05:29:16.288Z,12
2017-06-13T05:30:29.259Z,12
2017-06-13T05:31:42.034Z,12
2017-06-13T05:32:54.808Z,12
2017-06-13T05:34:07.580Z,12
2017-06-13T05:35:20.349Z,12
2017-06-13T05:36:33.322Z,12
2017-06-13T05:37:45.613Z,12
2017-06-13T05:38:58.383Z,12
2017-06-13T05:40:11.160Z,12
2017-06-13T05:41:24.132Z,12
2017-06-13T05:42:36.906Z,12
2017-06-13T05:43:49.299Z,12
2017-06-13T05:45:01.718Z,12
2017-06-13T05:46:14.627Z,12
2017-06-13T05:47:27.532Z,12
2017-06-13T05:48:40.439Z,12
2017-06-13T05:49:53.346Z,12
2017-06-13T05:51:05.765Z,12
2017-06-13T05:52:18.678Z,12
2017-06-13T05:53:31.109Z,4
2017-06-13T05:54:44.019Z,12
2017-06-13T05:55:56.927Z,16
2017-06-13T05:57:09.841Z,12
2017-06-13T05:58:22.751Z,12
2017-06-13T05:59:35.660Z,12
2017-06-13T06:00:48.080Z,12
2017-06-13T06:02:00.996Z,12
2017-06-13T06:03:13.908Z,12
2017-06-13T06:04:26.326Z,12
2017-06-13T06:05:39.236Z,12
2017-06-13T06:06:51.654Z,12
2017-06-13T06:08:04.568Z,12
2017-06-13T06:09:17.192Z,12
2017-06-13T06:10:29.614Z,12
2017-06-13T06:11:42.525Z,12
2017-06-13T06:12:55.432Z,12
2017-06-13T06:14:08.050Z,12
2017-06-13T06:15:20.963Z,12
2017-06-13T06:16:33.883Z,12
2017-06-13T06:17:46.799Z,12
2017-06-13T06:18:59.708Z,12
2017-06-13T06:20:11.839Z,12
2017-06-13T06:21:24.259Z,12
2017-06-13T06:22:37.185Z,12
2017-06-13T06:23:50.101Z,12
2017-06-13T06:25:03.212Z,12
2017-06-13T06:26:15.635Z,12
2017-06-13T06:27:28.543Z,12
2017-06-13T06:28:41.449Z,12
2017-06-13T06:29:53.874Z,4
2017-06-13T06:31:06.782Z,4
2017-06-13T06:32:19.199Z,16
2017-06-13T06:33:32.113Z,12
2017-06-13T06:34:44.535Z,12
2017-06-13T06:35:57.155Z,4
2017-06-13T06:37:10.075Z,4
2017-06-13T06:38:22.494Z,16
2017-06-13T06:39:34.911Z,12
2017-06-13T06:40:47.820Z,12
2017-06-13T06:41:59.949Z,12
2017-06-13T06:43:11.878Z,12
2017-06-13T06:44:24.787Z,12
2017-06-13T06:45:36.226Z,12
2017-06-13T06:46:49.237Z,12
2017-06-13T06:48:02.148Z,12
2017-06-13T06:49:14.572Z,12
2017-06-13T06:50:27.482Z,12
2017-06-13T06:51:39.901Z,12
2017-06-13T06:52:52.909Z,12
2017-06-13T06:54:05.846Z,12
2017-06-13T06:55:18.757Z,12
2017-06-13T06:56:30.690Z,8
2017-06-13T06:57:43.715Z,12
2017-06-13T06:58:56.622Z,12
2017-06-13T07:00:09.038Z,12
2017-06-13T07:01:21.947Z,12
2017-06-13T07:02:34.858Z,12
2017-06-13T07:03:47.476Z,12
2017-06-13T07:05:00.380Z,12
2017-06-13T07:06:11.819Z,12
2017-06-13T07:07:24.733Z,12
2017-06-13T07:08:37.158Z,12
2017-06-13T07:09:50.077Z,12
2017-06-13T07:11:02.500Z,12
2017-06-13T07:12:14.975Z,12
2017-06-13T07:13:26.936Z,12
2017-06-13T07:14:40.058Z,12
2017-06-13T07:15:52.973Z,16
2017-06-13T07:17:05.886Z,12
2017-06-13T07:18:18.797Z,12
2017-06-13T07:19:31.710Z,12
2017-06-13T07:20:44.634Z,12
2017-06-13T07:21:57.549Z,8
2017-06-13T07:23:10.461Z,12
2017-06-13T07:24:23.572Z,12
2017-06-13T07:25:36.485Z,12
2017-06-13T07:26:48.913Z,12
2017-06-13T07:28:01.825Z,12
2017-06-13T07:29:14.737Z,12
2017-06-13T07:30:27.849Z,12
2017-06-13T07:31:40.762Z,12
2017-06-13T07:32:53.212Z,12
2017-06-13T07:34:06.131Z,12
2017-06-13T07:35:19.042Z,12
2017-06-13T07:36:31.955Z,12
2017-06-13T07:37:44.865Z,12
2017-06-13T07:38:57.286Z,12
2017-06-13T07:40:10.199Z,12
2017-06-13T07:41:22.822Z,12
2017-06-13T07:42:35.734Z,12
2017-06-13T07:43:48.646Z,12
2017-06-13T07:45:01.559Z,12
2017-06-13T07:46:14.582Z,12
2017-06-13T07:47:26.876Z,12
2017-06-13T07:48:39.671Z,12
2017-06-13T07:49:51.964Z,12
2017-06-13T07:51:04.735Z,12
2017-06-13T07:52:17.027Z,12
2017-06-13T07:53:29.798Z,12
2017-06-13T07:54:42.572Z,4
2017-06-13T07:55:55.343Z,12
2017-06-13T07:57:08.119Z,16
2017-06-13T07:58:21.180Z,12
2017-06-13T07:59:33.090Z,8
2017-06-13T08:00:45.491Z,4
2017-06-13T08:01:58.379Z,4
2017-06-13T08:03:10.982Z,4
2017-06-13T08:04:22.899Z,16
2017-06-13T08:05:35.796Z,12
2017-06-13T08:06:48.690Z,12
2017-06-13T08:08:01.579Z,12
2017-06-13T08:09:14.470Z,12
2017-06-13T08:10:27.362Z,12
2017-06-13T08:11:40.262Z,12
2017-06-13T08:12:53.157Z,12
2017-06-13T08:14:06.050Z,12
2017-06-13T08:15:18.947Z,12
2017-06-13T08:16:31.840Z,12
2017-06-13T08:17:44.760Z,12
2017-06-13T08:18:57.703Z,12
2017-06-13T08:20:10.680Z,12
2017-06-13T08:21:23.665Z,12
2017-06-13T08:22:36.639Z,12
2017-06-13T08:23:49.614Z,12
2017-06-13T08:25:02.792Z,12
2017-06-13T08:26:15.302Z,4
2017-06-13T08:27:27.817Z,4
2017-06-13T08:28:40.793Z,12
2017-06-13T08:29:53.802Z,12
2017-06-13T08:31:06.774Z,4
2017-06-13T08:32:19.252Z,4
2017-06-13T08:33:32.234Z,4
2017-06-13T08:34:44.714Z,16
2017-06-13T08:35:57.886Z,16
2017-06-13T08:37:10.858Z,12
2017-06-13T08:38:23.339Z,12
2017-06-13T08:39:36.319Z,12
2017-06-13T08:40:48.800Z,12
2017-06-13T08:42:02.000Z,4
2017-06-13T08:43:14.480Z,4
2017-06-13T08:44:27.456Z,12
2017-06-13T08:45:40.434Z,12
2017-06-13T08:46:52.915Z,12
2017-06-13T08:48:05.895Z,12
2017-06-13T08:49:18.374Z,8
2017-06-13T08:50:31.352Z,12
2017-06-13T08:51:44.337Z,12
2017-06-13T08:52:57.370Z,12
2017-06-13T08:54:10.405Z,12
2017-06-13T08:55:23.446Z,12
2017-06-13T08:56:36.511Z,12
2017-06-13T08:57:49.047Z,12
2017-06-13T08:59:01.081Z,12
2017-06-13T09:00:14.113Z,12
2017-06-13T09:01:26.649Z,12
2017-06-13T09:02:39.681Z,12
2017-06-13T09:03:52.926Z,12
2017-06-13T09:05:05.461Z,4
2017-06-13T09:06:18.494Z,12
2017-06-13T09:07:31.526Z,12
2017-06-13T09:08:44.761Z,16
2017-06-13T09:09:57.297Z,12
2017-06-13T09:11:10.336Z,4
2017-06-13T09:12:22.871Z,4
2017-06-13T09:13:35.408Z,4
2017-06-13T09:14:48.442Z,4
2017-06-13T09:16:01.474Z,12
2017-06-13T09:17:14.507Z,16
2017-06-13T09:18:27.540Z,12
2017-06-13T09:19:40.773Z,12
2017-06-13T09:20:52.808Z,8
2017-06-13T09:22:05.853Z,8
2017-06-13T09:23:18.887Z,12
2017-06-13T09:24:31.922Z,12
2017-06-13T09:25:45.157Z,12
2017-06-13T09:26:58.116Z,8
2017-06-13T09:28:10.930Z,12
2017-06-13T09:29:22.740Z,12
2017-06-13T09:30:35.032Z,12
2017-06-13T09:31:47.802Z,8
2017-06-13T09:33:00.091Z,8
2017-06-13T09:34:12.869Z,4
2017-06-13T09:35:25.161Z,12
2017-06-13T09:36:37.453Z,12
2017-06-13T09:37:50.224Z,12
2017-06-13T09:39:02.996Z,12
2017-06-13T09:40:15.288Z,12
2017-06-13T09:41:28.262Z,12
2017-06-13T09:42:41.073Z,12
2017-06-13T09:43:53.843Z,12
2017-06-13T09:45:06.614Z,12
2017-06-13T09:46:19.389Z,12
2017-06-13T09:47:32.367Z,12
2017-06-13T09:48:45.138Z,16
2017-06-13T09:49:57.925Z,12
2017-06-13T09:51:10.703Z,12
2017-06-13T09:52:23.677Z,12
2017-06-13T09:53:36.447Z,12
2017-06-13T09:54:49.219Z,12
2017-06-13T09:56:01.989Z,12
2017-06-13T09:57:14.762Z,12
2017-06-13T09:58:27.254Z,12
2017-06-13T09:59:39.543Z,4
2017-06-13T10:00:52.314Z,12
2017-06-13T10:02:05.084Z,16
2017-06-13T10:03:18.056Z,12
2017-06-13T10:04:30.350Z,12
2017-06-13T10:05:42.640Z,16
2017-06-13T10:06:54.932Z,16
2017-06-13T10:08:07.225Z,20
2017-06-13T10:09:19.236Z,20
2017-06-13T10:10:32.006Z,12
2017-06-13T10:11:44.777Z,12
2017-06-13T10:12:57.090Z,12
2017-06-13T10:14:09.981Z,16
2017-06-13T10:15:22.382Z,20
2017-06-13T10:16:35.275Z,20
2017-06-13T10:17:48.171Z,24
2017-06-13T10:19:01.061Z,24
2017-06-13T10:20:13.459Z,24
2017-06-13T10:21:26.351Z,28
2017-06-13T10:22:39.242Z,28
2017-06-13T10:23:52.138Z,28
2017-06-13T10:25:05.232Z,28
2017-06-13T10:26:18.129Z,32
2017-06-13T10:27:30.542Z,32
2017-06-13T10:28:43.429Z,32
2017-06-13T10:29:56.319Z,32
2017-06-13T10:31:22.776Z,32
2017-06-13T10:32:35.670Z,32
2017-06-13T10:33:48.082Z,32
2017-06-13T10:35:00.979Z,36
2017-06-13T10:36:13.382Z,36
2017-06-13T10:37:25.783Z,40
2017-06-13T10:38:38.674Z,40
2017-06-13T10:39:51.572Z,44
2017-06-13T10:41:04.664Z,44
2017-06-13T10:42:17.554Z,52
2017-06-13T10:43:30.452Z,60
2017-06-13T10:44:43.344Z,64
2017-06-13T10:45:56.236Z,72
2017-06-13T10:47:09.136Z,84
2017-06-13T10:48:22.028Z,88
2017-06-13T10:49:34.430Z,92
2017-06-13T10:50:47.335Z,96
2017-06-13T10:52:00.421Z,92
2017-06-13T10:53:13.314Z,88
2017-06-13T10:54:26.240Z,84
2017-06-13T10:55:38.156Z,76
2017-06-13T10:56:51.051Z,68
2017-06-13T10:58:03.951Z,56
2017-06-13T10:59:16.375Z,56
2017-06-13T11:00:28.797Z,52
2017-06-13T11:01:41.707Z,56
2017-06-13T11:02:54.327Z,56
2017-06-13T11:04:07.274Z,64
2017-06-13T11:05:19.695Z,68
2017-06-13T11:06:32.113Z,68
2017-06-13T11:07:45.020Z,72
2017-06-13T11:08:57.642Z,72
2017-06-13T11:10:10.555Z,72
2017-06-13T11:11:22.977Z,72
2017-06-13T11:12:35.887Z,72
2017-06-13T11:13:48.995Z,72
2017-06-13T11:15:01.925Z,72
2017-06-13T11:16:14.366Z,80
2017-06-13T11:17:26.784Z,88
2017-06-13T11:18:38.716Z,100
2017-06-13T11:19:51.188Z,108
2017-06-13T11:21:03.608Z,124
2017-06-13T11:22:16.525Z,144
2017-06-13T11:23:28.945Z,156
2017-06-13T11:24:41.918Z,168
2017-06-13T11:25:53.847Z,176
2017-06-13T11:27:06.758Z,188
2017-06-13T11:28:19.666Z,200
2017-06-13T11:29:32.576Z,196
2017-06-13T11:30:45.488Z,192
2017-06-13T11:31:58.399Z,180
2017-06-13T11:33:11.310Z,164
2017-06-13T11:34:24.226Z,152
2017-06-13T11:35:36.745Z,144
2017-06-13T11:36:49.165Z,136
2017-06-13T11:38:02.079Z,132
2017-06-13T11:39:14.505Z,128
2017-06-13T11:40:27.416Z,124
2017-06-13T11:41:40.034Z,120
2017-06-13T11:42:52.455Z,120
2017-06-13T11:44:05.369Z,124
2017-06-13T11:45:18.280Z,128
2017-06-13T11:46:31.399Z,140
2017-06-13T11:47:44.311Z,144
2017-06-13T11:48:57.224Z,152
2017-06-13T11:50:09.644Z,164
2017-06-13T11:51:22.557Z,168
2017-06-13T11:52:34.982Z,168
2017-06-13T11:53:47.893Z,176
2017-06-13T11:55:00.804Z,176
2017-06-13T11:56:13.714Z,176
2017-06-13T11:57:26.337Z,176
2017-06-13T11:58:39.266Z,176
2017-06-13T11:59:52.174Z,180
2017-06-13T12:01:04.594Z,180
2017-06-13T12:02:17.519Z,168
2017-06-13T12:03:29.939Z,168
2017-06-13T12:04:42.850Z,168
2017-06-13T12:05:55.268Z,176
2017-06-13T12:07:08.182Z,176
2017-06-13T12:08:21.296Z,176
2017-06-13T12:09:33.717Z,176
2017-06-13T12:10:46.138Z,172
2017-06-13T12:11:59.047Z,172
2017-06-13T12:13:11.473Z,172
2017-06-13T12:14:24.483Z,168
2017-06-13T12:15:36.913Z,180
2017-06-13T12:16:49.825Z,196
2017-06-13T12:18:02.738Z,208
2017-06-13T12:19:15.847Z,220
2017-06-13T12:20:28.266Z,232
2017-06-13T12:21:41.175Z,260
2017-06-13T12:22:54.104Z,284
2017-06-13T12:24:07.023Z,308
2017-06-13T12:25:19.543Z,328
2017-06-13T12:26:32.452Z,348
2017-06-13T12:27:44.871Z,356
2017-06-13T12:28:57.762Z,360
2017-06-13T12:30:10.885Z,368
2017-06-13T12:31:23.285Z,368
2017-06-13T12:32:35.681Z,372
2017-06-13T12:33:47.589Z,380
2017-06-13T12:35:00.484Z,392
2017-06-13T12:36:12.915Z,408
2017-06-13T12:37:25.804Z,420
2017-06-13T12:38:38.692Z,444
2017-06-13T12:39:51.587Z,456
2017-06-13T12:41:04.685Z,448
2017-06-13T12:42:17.088Z,436
2017-06-13T12:43:29.003Z,392
2017-06-13T12:44:41.902Z,384
2017-06-13T12:45:55.625Z,384
2017-06-13T12:47:08.028Z,376
2017-06-13T12:48:19.938Z,356
2017-06-13T12:49:32.825Z,332
2017-06-13T12:50:45.718Z,336
2017-06-13T12:51:58.322Z,368
2017-06-13T12:53:11.216Z,412
2017-06-13T12:54:23.619Z,428
2017-06-13T12:55:36.021Z,404
2017-06-13T12:56:48.909Z,392
2017-06-13T12:58:01.804Z,400
2017-06-13T12:59:13.721Z,404
2017-06-13T13:00:26.125Z,392
2017-06-13T13:01:39.016Z,376
2017-06-13T13:02:52.107Z,364
2017-06-13T13:04:05.006Z,368
2017-06-13T13:05:17.413Z,368
2017-06-13T13:06:30.310Z,356
2017-06-13T13:07:43.198Z,336
2017-06-13T13:08:55.599Z,324
2017-06-13T13:10:08.013Z,320
2017-06-13T13:11:21.061Z,312
2017-06-13T13:12:33.478Z,296
2017-06-13T13:13:46.255Z,288
2017-06-13T13:14:58.074Z,292
2017-06-13T13:16:09.882Z,304
2017-06-13T13:17:22.224Z,336
2017-06-13T13:18:34.996Z,380
2017-06-13T13:19:47.770Z,412
2017-06-13T13:21:00.061Z,432
2017-06-13T13:22:12.354Z,452
2017-06-13T13:23:25.129Z,464
2017-06-13T13:24:37.906Z,476
2017-06-13T13:25:50.682Z,508
2017-06-13T13:27:03.452Z,524
2017-06-13T13:28:15.742Z,536
2017-06-13T13:29:28.519Z,548
2017-06-13T13:30:40.812Z,536
2017-06-13T13:31:53.585Z,520
2017-06-13T13:33:05.882Z,516
2017-06-13T13:34:18.654Z,528
2017-06-13T13:35:30.957Z,548
2017-06-13T13:36:43.733Z,576
2017-06-13T13:37:56.513Z,596
2017-06-13T13:39:09.292Z,620
2017-06-13T13:40:21.586Z,632
2017-06-13T13:41:34.400Z,620
2017-06-13T13:42:46.690Z,604
2017-06-13T13:43:58.990Z,580
2017-06-13T13:45:11.290Z,540
2017-06-13T13:46:24.073Z,504
2017-06-13T13:47:36.368Z,488
2017-06-13T13:48:48.666Z,496
2017-06-13T13:50:01.645Z,520
2017-06-13T13:51:13.944Z,540
2017-06-13T13:52:26.238Z,556
2017-06-13T13:53:38.538Z,572
2017-06-13T13:54:51.513Z,580
2017-06-13T13:56:04.291Z,588
2017-06-13T13:57:16.587Z,584
2017-06-13T13:58:28.401Z,584
2017-06-13T13:59:40.690Z,568
2017-06-13T14:00:52.985Z,560
2017-06-13T14:02:05.760Z,552
2017-06-13T14:03:18.554Z,540
2017-06-13T14:04:30.851Z,528
2017-06-13T14:05:43.143Z,500
2017-06-13T14:06:55.920Z,476
2017-06-13T14:08:08.213Z,464
2017-06-13T14:09:20.992Z,476
2017-06-13T14:10:32.849Z,476
2017-06-13T14:11:45.622Z,484
2017-06-13T14:12:57.434Z,492
2017-06-13T14:14:10.211Z,492
2017-06-13T14:15:22.988Z,484
2017-06-13T14:16:35.314Z,468
2017-06-13T14:17:47.606Z,452
2017-06-13T14:19:00.379Z,448
2017-06-13T14:20:13.153Z,464
2017-06-13T14:21:24.967Z,472
2017-06-13T14:22:37.747Z,500
2017-06-13T14:23:50.524Z,528
2017-06-13T14:25:03.302Z,512
2017-06-13T14:26:16.083Z,512
2017-06-13T14:27:28.858Z,520
2017-06-13T14:28:41.632Z,524
2017-06-13T14:29:54.407Z,532
2017-06-13T14:31:07.186Z,536
2017-06-13T14:32:19.477Z,540
2017-06-13T14:33:32.253Z,532
2017-06-13T14:34:45.025Z,520
2017-06-13T14:35:57.807Z,484
2017-06-13T14:37:10.589Z,464
2017-06-13T14:38:23.363Z,460
2017-06-13T14:39:35.657Z,476
2017-06-13T14:40:48.437Z,528
2017-06-13T14:42:01.213Z,576
2017-06-13T14:43:14.592Z,604
2017-06-13T14:44:27.015Z,616
2017-06-13T14:45:39.923Z,620
2017-06-13T14:46:52.347Z,608
2017-06-13T14:48:05.262Z,596
2017-06-13T14:49:18.173Z,612
2017-06-13T14:50:31.083Z,604
2017-06-13T14:51:44.000Z,588
2017-06-13T14:52:56.914Z,572
2017-06-13T14:54:09.830Z,560
2017-06-13T14:55:22.744Z,552
2017-06-13T14:56:34.675Z,552
2017-06-13T14:57:47.096Z,560
2017-06-13T14:59:00.012Z,564
2017-06-13T15:00:12.434Z,560
2017-06-13T15:01:24.864Z,544
2017-06-13T15:02:37.783Z,540
2017-06-13T15:03:50.205Z,556
2017-06-13T15:05:03.117Z,556
2017-06-13T15:06:16.030Z,552
2017-06-13T15:07:28.945Z,548
2017-06-13T15:08:41.894Z,552
2017-06-13T15:09:55.037Z,552
2017-06-13T15:11:07.949Z,532
2017-06-13T15:12:20.859Z,520
2017-06-13T15:13:33.770Z,500
2017-06-13T15:14:46.683Z,480
2017-06-13T15:15:59.798Z,460
2017-06-13T15:17:12.707Z,420
2017-06-13T15:18:25.621Z,380
2017-06-13T15:19:38.042Z,356
2017-06-13T15:20:50.958Z,340
2017-06-13T15:22:04.075Z,324
2017-06-13T15:23:16.500Z,312
2017-06-13T15:24:29.413Z,312
2017-06-13T15:25:42.330Z,320
2017-06-13T15:26:55.254Z,320
2017-06-13T15:28:07.188Z,312
2017-06-13T15:29:20.109Z,288
2017-06-13T15:30:33.026Z,268
2017-06-13T15:31:45.976Z,268
2017-06-13T15:32:58.891Z,272
2017-06-13T15:34:11.805Z,268
2017-06-13T15:35:24.828Z,256
2017-06-13T15:36:37.393Z,244
2017-06-13T15:37:50.450Z,232
2017-06-13T15:39:03.006Z,232
2017-06-13T15:40:16.068Z,236
2017-06-13T15:41:29.124Z,252
2017-06-13T15:42:41.714Z,252
2017-06-13T15:43:54.767Z,248
2017-06-13T15:45:07.819Z,252
2017-06-13T15:46:21.087Z,252
2017-06-13T15:47:34.179Z,256
2017-06-13T15:48:47.431Z,252
2017-06-13T15:49:59.990Z,244
2017-06-13T15:51:13.045Z,228
2017-06-13T15:52:26.097Z,220
2017-06-13T15:53:39.149Z,220
2017-06-13T15:54:51.710Z,212
2017-06-13T15:56:04.763Z,208
2017-06-13T15:57:17.318Z,204
2017-06-13T15:58:30.367Z,200
2017-06-13T15:59:42.928Z,192
2017-06-13T16:00:55.985Z,184
2017-06-13T16:02:09.041Z,180
2017-06-13T16:03:22.092Z,172
2017-06-13T16:04:35.347Z,164
2017-06-13T16:05:48.399Z,156
2017-06-13T16:07:00.954Z,156
2017-06-13T16:08:14.018Z,152
2017-06-13T16:09:27.070Z,148
2017-06-13T16:10:39.822Z,144
2017-06-13T16:11:52.381Z,144
2017-06-13T16:13:04.928Z,140
2017-06-13T16:14:17.967Z,140
2017-06-13T16:15:31.004Z,140
2017-06-13T16:16:44.039Z,136
2017-06-13T16:17:57.073Z,136
2017-06-13T16:19:10.112Z,140
2017-06-13T16:20:23.152Z,136
2017-06-13T16:21:36.191Z,132
2017-06-13T16:22:49.228Z,132
2017-06-13T16:24:01.767Z,128
2017-06-13T16:25:14.805Z,124
2017-06-13T16:26:27.843Z,124
2017-06-13T16:27:40.881Z,120
2017-06-13T16:28:53.960Z,120
2017-06-13T16:30:06.497Z,120
2017-06-13T16:31:19.040Z,120
2017-06-13T16:32:32.274Z,120
2017-06-13T16:33:44.813Z,116
2017-06-13T16:34:57.845Z,116
2017-06-13T16:36:10.891Z,112
2017-06-13T16:37:23.934Z,108
2017-06-13T16:38:36.981Z,108
2017-06-13T16:39:50.015Z,104
2017-06-13T16:41:04.374Z,108
2017-06-13T16:42:17.323Z,108
2017-06-13T16:43:30.215Z,108
2017-06-13T16:44:43.120Z,112
2017-06-13T16:45:55.524Z,112
2017-06-13T16:47:08.418Z,116
2017-06-13T16:48:20.819Z,116
2017-06-13T16:49:33.220Z,120
2017-06-13T16:50:46.114Z,124
2017-06-13T16:51:59.016Z,124
2017-06-13T16:53:11.914Z,128
2017-06-13T16:54:23.827Z,128
2017-06-13T16:55:36.717Z,132
2017-06-13T16:56:49.120Z,132
2017-06-13T16:58:01.926Z,136
2017-06-13T16:59:14.703Z,136
2017-06-13T17:00:27.194Z,140
2017-06-13T17:01:39.972Z,144
2017-06-13T17:02:51.782Z,144
2017-06-13T17:04:04.562Z,140
2017-06-13T17:05:16.854Z,128
2017-06-13T17:06:29.628Z,124
2017-06-13T17:07:41.926Z,124